createdAt,value
2023-04-14T00:02:11.093Z,56.18
2023-04-14T00:04:38.890Z,56.05
2023-04-14T00:07:06.617Z,56.04
2023-04-14T00:09:34.233Z,56.20
2023-04-14T00:12:03.199Z,56.07
2023-04-14T00:14:31.354Z,55.90
2023-04-14T00:16:59.004Z,56.05
2023-04-14T00:19:26.618Z,55.96
2023-04-14T00:21:54.232Z,56.06
2023-04-14T00:24:21.881Z,56.27
2023-04-14T00:26:49.500Z,56.27
2023-04-14T00:29:18.467Z,56.52
2023-04-14T00:31:46.054Z,56.18
2023-04-14T00:34:14.017Z,56.11
2023-04-14T00:36:41.603Z,56.26
2023-04-14T00:39:09.216Z,56.15
2023-04-14T00:41:36.829Z,56.20
2023-04-14T00:44:04.472Z,56.53
2023-04-14T00:46:33.518Z,56.33
2023-04-14T00:49:01.672Z,56.27
2023-04-14T00:51:29.489Z,56.21
2023-04-14T00:53:57.807Z,56.11
2023-04-14T00:56:26.437Z,56.19
2023-04-14T00:58:54.779Z,56.17
2023-04-14T01:01:22.634Z,56.19
2023-04-14T01:03:53.296Z,56.24
2023-04-14T01:06:21.513Z,56.08
2023-04-14T01:08:50.506Z,56.37
2023-04-14T01:11:29.053Z,56.15
2023-04-14T01:14:04.800Z,56.49
2023-04-14T01:16:37.738Z,56.38
2023-04-14T01:19:23.125Z,56.46
2023-04-14T01:21:55.550Z,56.67
2023-04-14T01:24:51.883Z,56.50
2023-04-14T01:27:33.493Z,56.28
2023-04-14T01:30:44.146Z,56.52
2023-04-14T01:33:17.685Z,56.70
2023-04-14T01:35:50.403Z,56.63
2023-04-14T01:38:25.173Z,56.77
2023-04-14T01:40:55.350Z,56.52
2023-04-14T01:43:27.353Z,56.61
2023-04-14T01:45:58.864Z,56.54
2023-04-14T01:48:29.376Z,56.42
2023-04-14T01:50:59.588Z,56.45
2023-04-14T01:53:29.063Z,56.49
2023-04-14T01:55:58.426Z,56.36
2023-04-14T01:58:27.339Z,56.50
2023-04-14T02:00:55.940Z,56.54
2023-04-14T02:03:24.987Z,56.43
2023-04-14T02:05:56.521Z,56.52
2023-04-14T02:08:27.027Z,56.71
2023-04-14T02:10:56.166Z,56.67
2023-04-14T02:13:25.652Z,56.99
2023-04-14T02:15:54.145Z,56.67
2023-04-14T02:18:24.050Z,56.62
2023-04-14T02:20:53.545Z,56.73
2023-04-14T02:23:22.835Z,56.77
2023-04-14T02:25:55.372Z,56.50
2023-04-14T02:28:28.802Z,56.46
2023-04-14T02:30:59.561Z,56.90
2023-04-14T02:33:32.384Z,56.68
2023-04-14T02:36:03.248Z,56.78
2023-04-14T02:38:37.413Z,56.83
2023-04-14T02:41:09.490Z,56.57
2023-04-14T02:43:45.098Z,56.82
2023-04-14T02:46:17.443Z,56.88
2023-04-14T02:48:48.471Z,56.76
2023-04-14T02:51:18.998Z,56.88
2023-04-14T02:53:49.012Z,56.89
2023-04-14T02:56:16.886Z,56.67
2023-04-14T02:58:44.914Z,56.93
2023-04-14T03:01:13.272Z,57.21
2023-04-14T03:03:41.433Z,57.01
2023-04-14T03:06:09.751Z,56.97
2023-04-14T03:08:38.678Z,56.75
2023-04-14T03:11:08.114Z,56.72
2023-04-14T03:13:38.624Z,56.93
2023-04-14T03:16:08.323Z,57.12
2023-04-14T03:18:37.232Z,56.97
2023-04-14T03:21:06.855Z,57.09
2023-04-14T03:23:37.576Z,56.83
2023-04-14T03:26:07.674Z,57.11
2023-04-14T03:28:38.184Z,56.96
2023-04-14T03:31:09.008Z,56.78
2023-04-14T03:33:38.050Z,56.96
2023-04-14T03:36:08.948Z,57.33
2023-04-14T03:38:37.977Z,57.38
2023-04-14T03:41:09.581Z,57.08
2023-04-14T03:43:37.932Z,56.84
2023-04-14T03:46:06.107Z,57.43
2023-04-14T03:48:39.414Z,56.90
2023-04-14T03:51:09.172Z,57.12
2023-04-14T03:53:40.758Z,57.14
2023-04-14T03:56:13.321Z,57.47
2023-04-14T03:58:42.577Z,57.38
2023-04-14T04:01:10.613Z,57.05
2023-04-14T04:03:38.892Z,57.42
2023-04-14T04:06:07.871Z,57.18
2023-04-14T04:08:37.348Z,57.29
2023-04-14T04:11:07.632Z,57.19
2023-04-14T04:13:37.717Z,57.19
2023-04-14T04:16:08.446Z,57.21
2023-04-14T04:18:38.786Z,57.32
2023-04-14T04:21:08.036Z,57.43
2023-04-14T04:23:36.090Z,57.28
2023-04-14T04:26:04.008Z,57.31
2023-04-14T04:28:32.153Z,57.35
2023-04-14T04:31:01.708Z,57.44
2023-04-14T04:33:31.434Z,56.99
2023-04-14T04:35:59.350Z,57.03
2023-04-14T04:38:26.972Z,57.19
2023-04-14T04:40:54.833Z,57.11
2023-04-14T04:43:22.442Z,57.44
2023-04-14T04:46:03.332Z,57.34
2023-04-14T04:48:32.361Z,57.34
2023-04-14T04:50:59.955Z,57.35
2023-04-14T04:53:27.575Z,57.35
2023-04-14T04:55:55.224Z,57.22
2023-04-14T04:58:22.821Z,57.42
2023-04-14T05:00:50.491Z,57.31
2023-04-14T05:03:18.123Z,57.34
2023-04-14T05:05:47.147Z,57.25
2023-04-14T05:08:15.381Z,57.41
2023-04-14T05:10:43.093Z,57.38
2023-04-14T05:13:10.816Z,57.46
2023-04-14T05:15:38.457Z,57.15
2023-04-14T05:18:06.416Z,57.59
2023-04-14T05:20:35.087Z,57.47
2023-04-14T05:23:04.445Z,57.53
2023-04-14T05:25:32.170Z,57.36
2023-04-14T05:27:59.744Z,57.45
2023-04-14T05:30:27.588Z,57.31
2023-04-14T05:32:55.245Z,57.20
2023-04-14T05:35:24.959Z,57.24
2023-04-14T05:37:52.565Z,57.41
2023-04-14T05:40:22.590Z,57.65
2023-04-14T05:42:50.249Z,57.66
2023-04-14T05:45:17.819Z,57.55
2023-04-14T05:47:46.906Z,57.33
2023-04-14T05:50:16.451Z,57.50
2023-04-14T05:52:44.104Z,57.39
2023-04-14T05:55:12.285Z,57.38
2023-04-14T05:57:41.400Z,57.59
2023-04-14T06:00:10.575Z,57.59
2023-04-14T06:02:38.448Z,57.59
2023-04-14T06:05:07.667Z,57.55
2023-04-14T06:07:35.660Z,57.57
2023-04-14T06:10:04.113Z,57.57
2023-04-14T06:12:31.822Z,57.37
2023-04-14T06:15:00.800Z,57.78
2023-04-14T06:17:28.778Z,57.77
2023-04-14T06:19:57.317Z,57.81
2023-04-14T06:22:29.247Z,57.57
2023-04-14T06:24:57.436Z,57.56
2023-04-14T06:27:25.398Z,57.84
2023-04-14T06:29:53.121Z,57.39
2023-04-14T06:32:22.236Z,57.70
2023-04-14T06:34:52.670Z,57.71
2023-04-14T06:37:21.006Z,57.75
2023-04-14T06:39:48.602Z,57.63
2023-04-14T06:42:16.250Z,57.75
2023-04-14T06:44:43.866Z,57.42
2023-04-14T06:47:11.641Z,57.50
2023-04-14T06:49:40.763Z,57.74
2023-04-14T06:52:08.369Z,57.81
2023-04-14T06:54:36.347Z,57.73
2023-04-14T06:57:03.992Z,57.83
2023-04-14T06:59:31.658Z,57.79
2023-04-14T07:01:59.646Z,57.91
2023-04-14T07:04:27.342Z,57.74
2023-04-14T07:07:00.427Z,58.03
2023-04-14T07:09:28.408Z,57.37
2023-04-14T07:11:57.100Z,57.81
2023-04-14T07:14:24.959Z,57.90
2023-04-14T07:16:53.443Z,57.68
2023-04-14T07:19:21.292Z,57.71
2023-04-14T07:21:49.028Z,57.81
2023-04-14T07:24:17.972Z,57.99
2023-04-14T07:26:45.676Z,58.02
2023-04-14T07:29:13.492Z,57.91
2023-04-14T07:31:41.204Z,57.90
2023-04-14T07:34:08.844Z,58.12
2023-04-14T07:36:38.225Z,57.95
2023-04-14T07:39:05.867Z,57.94
2023-04-14T07:41:34.843Z,57.80
2023-04-14T07:44:03.098Z,57.98
2023-04-14T07:46:31.499Z,58.21
2023-04-14T07:48:59.234Z,57.88
2023-04-14T07:51:27.216Z,58.09
2023-04-14T07:53:56.054Z,58.08
2023-04-14T07:56:23.856Z,57.74
2023-04-14T07:58:53.248Z,57.74
2023-04-14T08:01:20.861Z,57.92
2023-04-14T08:03:48.762Z,58.16
2023-04-14T08:06:16.879Z,58.22
2023-04-14T08:08:44.497Z,58.17
2023-04-14T08:11:12.126Z,57.90
2023-04-14T08:13:39.728Z,58.18
2023-04-14T08:16:09.362Z,58.10
2023-04-14T08:18:37.701Z,57.98
2023-04-14T08:21:05.670Z,58.16
2023-04-14T08:23:33.297Z,57.84
2023-04-14T08:26:00.987Z,58.17
2023-04-14T08:28:29.281Z,57.88
2023-04-14T08:30:56.938Z,58.27
2023-04-14T08:33:25.984Z,58.07
2023-04-14T08:35:56.619Z,57.85
2023-04-14T08:38:27.956Z,58.25
2023-04-14T08:40:57.058Z,57.85
2023-04-14T08:43:24.739Z,58.10
2023-04-14T08:45:54.053Z,58.13
2023-04-14T08:48:25.098Z,58.47
2023-04-14T08:51:04.686Z,57.82
2023-04-14T08:53:33.611Z,58.35
2023-04-14T08:56:04.859Z,58.14
2023-04-14T08:58:32.855Z,58.27
2023-04-14T09:01:00.677Z,58.18
2023-04-14T09:03:28.834Z,58.32
2023-04-14T09:05:58.329Z,58.39
2023-04-14T09:08:27.012Z,58.14
2023-04-14T09:10:55.146Z,58.22
2023-04-14T09:13:23.302Z,58.30
2023-04-14T09:15:51.194Z,58.35
2023-04-14T09:18:19.079Z,58.33
2023-04-14T09:21:29.921Z,58.29
2023-04-14T09:23:38.122Z,58.39
2023-04-14T09:26:09.158Z,58.60
2023-04-14T09:28:36.946Z,58.44
2023-04-14T09:31:05.478Z,58.12
2023-04-14T09:33:34.267Z,58.36
2023-04-14T09:36:01.960Z,58.38
2023-04-14T09:38:34.512Z,58.33
2023-04-14T09:41:04.019Z,58.36
2023-04-14T09:43:31.812Z,58.51
2023-04-14T09:46:05.839Z,58.41
2023-04-14T09:48:34.788Z,58.41
2023-04-14T09:51:06.569Z,58.68
2023-04-14T09:53:35.836Z,58.25
2023-04-14T09:56:07.027Z,58.73
2023-04-14T09:58:36.548Z,58.46
2023-04-14T10:01:06.314Z,58.65
2023-04-14T10:03:35.953Z,58.13
2023-04-14T10:06:05.481Z,58.61
2023-04-14T10:08:41.939Z,58.36
2023-04-14T10:11:19.952Z,58.58
2023-04-14T10:13:49.302Z,58.72
2023-04-14T10:16:17.686Z,59.19
2023-04-14T10:18:45.708Z,59.01
2023-04-14T10:21:14.959Z,58.95
2023-04-14T10:23:43.813Z,58.92
2023-04-14T10:26:12.899Z,59.02
2023-04-14T10:28:44.636Z,58.73
2023-04-14T10:31:16.148Z,58.83
2023-04-14T10:33:44.188Z,58.86
2023-04-14T10:36:12.142Z,58.83
2023-04-14T10:38:42.347Z,58.64
2023-04-14T10:41:11.864Z,58.96
2023-04-14T10:43:40.264Z,58.54
2023-04-14T10:46:11.033Z,58.87
2023-04-14T10:48:40.327Z,58.89
2023-04-14T10:51:10.441Z,58.78
2023-04-14T10:53:39.848Z,58.97
2023-04-14T10:56:07.879Z,58.62
2023-04-14T10:58:37.672Z,58.73
2023-04-14T11:01:31.125Z,59.02
2023-04-14T11:04:11.790Z,58.96
2023-04-14T11:06:54.983Z,58.90
2023-04-14T11:09:43.588Z,59.14
2023-04-14T11:12:26.047Z,59.07
2023-04-14T11:14:56.470Z,58.89
2023-04-14T11:17:30.304Z,58.70
2023-04-14T11:19:58.580Z,58.82
2023-04-14T11:22:39.960Z,58.83
2023-04-14T11:25:09.009Z,58.62
2023-04-14T11:27:36.640Z,58.85
2023-04-14T11:30:07.085Z,59.12
2023-04-14T11:32:48.282Z,58.49
2023-04-14T11:35:16.418Z,58.59
2023-04-14T11:37:44.246Z,58.73
2023-04-14T11:40:13.009Z,58.79
2023-04-14T11:42:44.972Z,58.71
2023-04-14T11:45:15.270Z,58.83
2023-04-14T11:47:56.927Z,58.62
2023-04-14T11:50:24.975Z,59.00
2023-04-14T11:52:54.032Z,59.04
2023-04-14T11:55:23.306Z,58.81
2023-04-14T11:57:50.939Z,58.86
2023-04-14T12:00:19.167Z,58.71
2023-04-14T12:02:48.775Z,58.87
2023-04-14T12:05:21.600Z,58.84
2023-04-14T12:07:50.315Z,58.98
2023-04-14T12:10:18.421Z,58.89
2023-04-14T12:12:46.884Z,58.88
2023-04-14T12:15:14.666Z,58.89
2023-04-14T12:17:42.757Z,58.85
2023-04-14T12:20:18.056Z,58.51
2023-04-14T12:22:45.856Z,58.75
2023-04-14T12:25:13.768Z,58.95
2023-04-14T12:27:41.478Z,58.88
2023-04-14T12:30:10.603Z,58.81
2023-04-14T12:32:41.941Z,58.98
2023-04-14T12:35:10.243Z,59.08
2023-04-14T12:37:41.339Z,58.92
2023-04-14T12:40:11.362Z,58.94
2023-04-14T12:42:48.240Z,58.82
2023-04-14T12:45:17.175Z,59.19
2023-04-14T12:47:53.918Z,58.88
2023-04-14T12:50:28.008Z,59.03
2023-04-14T12:52:59.683Z,58.82
2023-04-14T12:55:28.592Z,59.21
2023-04-14T12:57:57.041Z,59.11
2023-04-14T13:00:27.084Z,58.95
2023-04-14T13:02:56.092Z,59.15
2023-04-14T13:05:23.978Z,58.77
2023-04-14T13:07:51.609Z,58.88
2023-04-14T13:10:21.118Z,58.96
2023-04-14T13:12:48.839Z,59.22
2023-04-14T13:15:32.562Z,59.08
2023-04-14T13:18:04.334Z,59.16
2023-04-14T13:20:32.126Z,58.96
2023-04-14T13:22:59.687Z,59.02
2023-04-14T13:25:28.666Z,59.12
2023-04-14T13:27:56.293Z,59.02
2023-04-14T13:30:23.870Z,59.19
2023-04-14T13:32:51.474Z,59.00
2023-04-14T13:35:19.182Z,59.15
2023-04-14T13:37:46.948Z,59.21
2023-04-14T13:40:14.652Z,58.97
2023-04-14T13:42:43.703Z,59.35
2023-04-14T13:45:11.737Z,59.50
2023-04-14T13:47:39.356Z,59.25
2023-04-14T13:50:07.950Z,59.38
2023-04-14T13:52:36.374Z,59.25
2023-04-14T13:55:04.049Z,59.21
2023-04-14T13:57:31.930Z,59.33
2023-04-14T14:00:01.454Z,59.32
2023-04-14T14:02:29.234Z,59.29
2023-04-14T14:04:56.933Z,59.04
2023-04-14T14:07:24.546Z,59.02
2023-04-14T14:09:52.150Z,59.34
2023-04-14T14:12:19.908Z,59.02
2023-04-14T14:14:47.551Z,59.35
2023-04-14T14:17:16.893Z,59.26
2023-04-14T14:19:44.563Z,59.13
2023-04-14T14:22:12.155Z,59.55
2023-04-14T14:24:41.342Z,59.22
2023-04-14T14:27:08.946Z,59.38
2023-04-14T14:29:36.640Z,59.08
2023-04-14T14:32:04.296Z,59.42
2023-04-14T14:34:33.504Z,59.39
2023-04-14T14:37:01.195Z,59.44
2023-04-14T14:39:30.504Z,59.32
2023-04-14T14:41:58.144Z,59.38
2023-04-14T14:44:25.934Z,59.45
2023-04-14T14:46:53.998Z,59.39
2023-04-14T14:49:22.115Z,59.47
2023-04-14T14:51:51.075Z,59.37
2023-04-14T14:54:18.639Z,59.29
2023-04-14T14:56:46.276Z,59.37
2023-04-14T14:59:13.985Z,59.38
2023-04-14T15:01:41.693Z,59.38
2023-04-14T15:04:10.518Z,59.37
2023-04-14T15:06:38.170Z,59.06
2023-04-14T15:09:07.469Z,59.43
2023-04-14T15:11:35.319Z,59.61
2023-04-14T15:14:03.387Z,59.11
2023-04-14T15:16:31.357Z,59.20
2023-04-14T15:18:59.065Z,59.49
2023-04-14T15:21:26.679Z,59.10
2023-04-14T15:23:54.315Z,59.62
2023-04-14T15:26:23.366Z,59.46
2023-04-14T15:28:51.154Z,59.49
2023-04-14T15:31:18.744Z,59.34
2023-04-14T15:33:46.395Z,59.32
2023-04-14T15:36:14.031Z,59.48
2023-04-14T15:38:42.384Z,59.63
2023-04-14T15:41:09.991Z,59.58
2023-04-14T15:43:38.964Z,59.49
2023-04-14T15:46:06.916Z,59.47
2023-04-14T15:48:34.648Z,59.65
2023-04-14T15:51:02.436Z,59.50
2023-04-14T15:53:30.277Z,59.40
2023-04-14T15:55:58.128Z,59.42
2023-04-14T15:58:25.722Z,59.56
2023-04-14T16:00:54.720Z,59.59
2023-04-14T16:03:22.517Z,59.59
2023-04-14T16:05:50.487Z,59.54
2023-04-14T16:08:19.103Z,59.60
2023-04-14T16:10:46.728Z,59.64
2023-04-14T16:13:14.892Z,59.56
2023-04-14T16:15:42.804Z,59.69
2023-04-14T16:18:11.762Z,59.74
2023-04-14T16:20:39.384Z,59.83
2023-04-14T16:23:06.971Z,59.40
2023-04-14T16:25:35.706Z,59.50
2023-04-14T16:28:03.368Z,59.52
2023-04-14T16:30:32.212Z,59.12
2023-04-14T16:32:59.890Z,59.50
2023-04-14T16:35:29.462Z,59.59
2023-04-14T16:37:57.066Z,59.57
2023-04-14T16:40:25.047Z,59.35
2023-04-14T16:42:52.683Z,59.63
2023-04-14T16:45:20.775Z,59.50
2023-04-14T16:47:48.468Z,59.48
2023-04-14T16:50:16.332Z,59.65
2023-04-14T16:52:45.292Z,59.57
2023-04-14T16:55:15.640Z,59.58
2023-04-14T16:57:43.386Z,59.78
2023-04-14T17:00:13.745Z,59.56
2023-04-14T17:02:42.044Z,59.83
2023-04-14T17:05:11.268Z,59.52
2023-04-14T17:07:38.937Z,59.36
2023-04-14T17:10:08.697Z,59.63
2023-04-14T17:12:36.351Z,59.49
2023-04-14T17:15:04.507Z,59.82
2023-04-14T17:17:33.772Z,59.40
2023-04-14T17:20:01.805Z,60.12
2023-04-14T17:22:29.427Z,59.57
2023-04-14T17:24:57.064Z,59.74
2023-04-14T17:27:26.379Z,59.71
2023-04-14T17:29:54.650Z,59.77
2023-04-14T17:32:22.350Z,60.02
2023-04-14T17:34:50.402Z,59.72
2023-04-14T17:37:18.586Z,59.60
2023-04-14T17:39:49.086Z,59.75
2023-04-14T17:42:17.038Z,59.81
2023-04-14T17:44:46.045Z,59.97
2023-04-14T17:47:15.410Z,59.61
2023-04-14T17:49:43.813Z,59.59
2023-04-14T17:52:12.581Z,59.77
2023-04-14T17:54:40.461Z,59.54
2023-04-14T17:57:10.804Z,59.57
2023-04-14T17:59:38.724Z,59.74
2023-04-14T18:02:08.502Z,59.66
2023-04-14T18:04:37.408Z,59.64
2023-04-14T18:07:05.202Z,59.71
2023-04-14T18:09:33.044Z,59.81
2023-04-14T18:12:00.656Z,59.70
2023-04-14T18:14:28.245Z,59.45
2023-04-14T18:16:56.068Z,59.80
2023-04-14T18:19:25.124Z,59.66
2023-04-14T18:21:52.750Z,59.50
2023-04-14T18:26:51.711Z,59.57
2023-04-14T18:29:19.722Z,59.67
2023-04-14T18:31:47.421Z,59.47
2023-04-14T18:34:16.732Z,59.72
2023-04-14T18:36:45.772Z,59.75
2023-04-14T18:39:14.607Z,59.73
2023-04-14T18:41:42.827Z,59.56
2023-04-14T18:44:10.603Z,59.74
2023-04-14T18:46:38.906Z,59.65
2023-04-14T18:49:06.730Z,59.75
2023-04-14T18:51:34.348Z,59.86
2023-04-14T18:54:03.437Z,59.67
2023-04-14T18:56:31.830Z,59.79
2023-04-14T18:58:59.914Z,59.81
2023-04-14T19:01:28.619Z,59.76
2023-04-14T19:03:57.592Z,59.73
2023-04-14T19:06:26.178Z,60.09
2023-04-14T19:08:53.863Z,59.87
2023-04-14T19:11:23.538Z,59.82
2023-04-14T19:13:53.674Z,60.05
2023-04-14T19:16:22.614Z,59.86
2023-04-14T19:18:50.322Z,59.91
2023-04-14T19:21:18.513Z,59.87
2023-04-14T19:23:46.525Z,60.00
2023-04-14T19:26:14.264Z,60.16
2023-04-14T19:28:43.232Z,59.74
2023-04-14T19:31:10.971Z,59.84
2023-04-14T19:33:39.061Z,59.86
2023-04-14T19:36:12.689Z,59.94
2023-04-14T19:38:40.550Z,59.84
2023-04-14T19:41:08.615Z,59.95
2023-04-14T19:43:36.514Z,59.79
2023-04-14T19:46:05.633Z,59.98
2023-04-14T19:48:33.939Z,59.67
2023-04-14T19:51:03.908Z,59.98
2023-04-14T19:53:31.796Z,59.88
2023-04-14T19:55:59.728Z,59.92
2023-04-14T19:58:30.438Z,60.19
2023-04-14T20:00:58.713Z,59.86
2023-04-14T20:03:28.187Z,59.62
2023-04-14T20:05:57.480Z,59.91
2023-04-14T20:08:26.412Z,60.12
2023-04-14T20:10:54.993Z,59.77
2023-04-14T20:13:26.733Z,60.18
2023-04-14T20:15:54.921Z,59.94
2023-04-14T20:18:23.316Z,59.77
2023-04-14T20:20:52.757Z,59.95
2023-04-14T20:23:20.646Z,60.04
2023-04-14T20:25:48.984Z,60.10
2023-04-14T20:28:19.234Z,59.92
2023-04-14T20:30:48.306Z,60.11
2023-04-14T20:33:18.353Z,59.95
2023-04-14T20:35:46.155Z,60.12
2023-04-14T20:38:15.822Z,60.27
2023-04-14T20:40:43.485Z,59.93
2023-04-14T20:43:11.167Z,60.17
2023-04-14T20:45:39.268Z,59.92
2023-04-14T20:48:08.301Z,60.02
2023-04-14T20:50:35.953Z,60.05
2023-04-14T20:53:03.548Z,60.01
2023-04-14T20:55:32.558Z,60.05
2023-04-14T20:58:00.287Z,60.09
2023-04-14T21:00:27.953Z,59.95
2023-04-14T21:02:55.897Z,59.87
2023-04-14T21:05:23.674Z,60.30
2023-04-14T21:07:51.309Z,60.01
2023-04-14T21:10:18.970Z,59.87
2023-04-14T21:15:15.903Z,59.79
2023-04-14T21:15:53.259Z,60.13
2023-04-14T21:18:23.247Z,59.99
2023-04-14T21:20:50.846Z,60.35
2023-04-14T21:23:18.854Z,59.88
2023-04-14T21:25:46.878Z,60.33
2023-04-14T21:28:16.339Z,59.80
2023-04-14T21:30:44.339Z,60.05
2023-04-14T21:33:12.114Z,59.95
2023-04-14T21:35:39.808Z,60.13
2023-04-14T21:38:07.472Z,59.96
2023-04-14T21:40:35.537Z,60.02
2023-04-14T21:43:03.144Z,59.90
2023-04-14T21:45:32.807Z,60.04
2023-04-14T21:48:00.545Z,60.13
2023-04-14T21:50:28.189Z,60.02
2023-04-14T21:52:56.585Z,60.40
2023-04-14T21:55:24.196Z,60.18
2023-04-14T21:57:52.425Z,60.12
2023-04-14T22:00:20.477Z,60.09
2023-04-14T22:02:50.036Z,60.00
2023-04-14T22:05:18.287Z,60.14
2023-04-14T22:07:46.418Z,60.17
2023-04-14T22:10:14.575Z,60.18
2023-04-14T22:12:42.445Z,60.20
2023-04-14T22:15:10.825Z,60.28
2023-04-14T22:17:39.486Z,60.28
2023-04-14T22:20:10.285Z,60.32
2023-04-14T22:22:37.925Z,60.31
2023-04-14T22:25:06.607Z,60.13
2023-04-14T22:27:34.446Z,60.26
2023-04-14T22:30:02.575Z,60.15
2023-04-14T22:32:30.229Z,60.41
2023-04-14T22:34:57.876Z,60.31
2023-04-14T22:37:26.918Z,60.32
2023-04-14T22:39:54.511Z,60.20
2023-04-14T22:42:22.481Z,60.11
2023-04-14T22:44:51.262Z,60.29
2023-04-14T22:47:18.956Z,60.35
2023-04-14T22:49:46.559Z,60.31
2023-04-14T22:52:14.152Z,60.45
2023-04-14T22:54:43.109Z,60.33
2023-04-14T22:57:11.335Z,60.48
2023-04-14T22:59:38.964Z,60.20
2023-04-14T23:02:07.251Z,60.40
2023-04-14T23:04:34.994Z,60.13
2023-04-14T23:07:02.664Z,60.22
2023-04-14T23:09:30.425Z,60.45
2023-04-14T23:12:01.133Z,60.55
2023-04-14T23:14:29.183Z,60.21
2023-04-14T23:16:56.792Z,60.04
2023-04-14T23:19:24.384Z,60.33
2023-04-14T23:21:52.500Z,60.35
2023-04-14T23:24:20.707Z,60.37
2023-04-14T23:26:48.320Z,60.60
2023-04-14T23:29:17.304Z,60.31
2023-04-14T23:31:44.967Z,60.27
2023-04-14T23:34:12.592Z,60.46
2023-04-14T23:36:40.273Z,60.31
2023-04-14T23:39:07.943Z,60.29
2023-04-14T23:41:35.544Z,60.15
2023-04-14T23:44:03.163Z,60.69
2023-04-14T23:46:32.562Z,60.67
2023-04-14T23:49:23.073Z,60.51
2023-04-14T23:51:47.851Z,60.50
2023-04-14T23:54:15.470Z,60.35
2023-04-14T23:56:43.083Z,60.42
2023-04-14T23:59:10.738Z,60.24
